Time;durP1;ratioP1;P1;durP2;ratioP2;P2;SDS_P1;SDS_P2;PMS_P1;PMS_P2;Temp;Humidity;BMP_temperature;BMP_pressure;BME280_temperature;BME280_humidity;BME280_pressure;Samples;Min_cycle;Max_cycle;Signal;HPM_P1;HPM_P2
2021/12/18 00:00:52;;;;;;;8.48;2.30;;;28.20;99.90;;;;;;5053785;28;20025;-71
2021/12/18 00:03:20;;;;;;;7.57;1.92;;;28.00;99.90;;;;;;5051866;28;20052;-70
2021/12/18 00:05:47;;;;;;;6.65;1.75;;;28.00;99.90;;;;;;5053239;28;20363;-70
2021/12/18 00:08:14;;;;;;;5.88;1.90;;;28.10;99.90;;;;;;5053035;28;20029;-70
2021/12/18 00:10:44;;;;;;;8.68;2.13;;;28.20;99.90;;;;;;5054756;28;20652;-72
2021/12/18 00:13:12;;;;;;;6.70;2.08;;;28.20;99.90;;;;;;5052253;28;20171;-71
2021/12/18 00:15:39;;;;;;;6.55;1.77;;;28.30;99.90;;;;;;5051546;28;20024;-70
2021/12/18 00:18:07;;;;;;;6.35;1.73;;;28.50;99.90;;;;;;5050213;28;20500;-70
2021/12/18 00:20:37;;;;;;;8.15;1.73;;;28.90;99.90;;;;;;5037111;28;20485;-71
2021/12/18 00:23:05;;;;;;;8.90;2.38;;;29.10;99.90;;;;;;5052877;28;20024;-71
2021/12/18 00:25:33;;;;;;;8.65;2.03;;;29.20;99.90;;;;;;5052595;28;20114;-70
2021/12/18 00:28:01;;;;;;;9.02;2.35;;;29.20;99.90;;;;;;5035609;28;20025;-70
2021/12/18 00:30:28;;;;;;;8.32;1.88;;;29.20;99.90;;;;;;5054026;28;20037;-71
2021/12/18 00:32:55;;;;;;;5.10;1.50;;;29.30;99.90;;;;;;5050016;28;20091;-71
2021/12/18 00:35:23;;;;;;;5.20;1.58;;;29.50;99.90;;;;;;5052534;28;20385;-70
2021/12/18 00:37:50;;;;;;;9.30;2.05;;;29.90;99.90;;;;;;5050114;28;20026;-72
2021/12/18 00:40:25;;;;;;;6.70;2.10;;;30.10;99.90;;;;;;5043666;28;20029;-72
2021/12/18 00:43:02;;;;;;;5.55;1.70;;;30.30;99.90;;;;;;5051553;28;20382;-70
2021/12/18 00:45:31;;;;;;;4.05;1.35;;;30.50;99.90;;;;;;5053627;28;20025;-71
2021/12/18 00:47:58;;;;;;;3.80;1.50;;;30.70;99.90;;;;;;5051186;28;20021;-71
2021/12/18 00:50:32;;;;;;;8.32;1.88;;;30.80;99.90;;;;;;5052100;28;20040;-72
2021/12/18 00:52:59;;;;;;;4.82;1.42;;;31.00;99.90;;;;;;5037484;28;20040;-71
2021/12/18 00:55:26;;;;;;;6.28;1.77;;;31.20;99.90;;;;;;5053637;28;20082;-71
2021/12/18 00:57:53;;;;;;;9.85;2.10;;;31.40;99.90;;;;;;5048988;28;20174;-72
2021/12/18 01:00:24;;;;;;;10.65;2.70;;;31.50;99.90;;;;;;5050157;28;20021;-72
2021/12/18 01:02:57;;;;;;;13.77;3.17;;;31.30;99.90;;;;;;5050610;28;20048;-71
2021/12/18 01:05:25;;;;;;;10.60;2.97;;;30.80;99.90;;;;;;5051415;28;20021;-72
2021/12/18 01:07:57;;;;;;;10.68;2.95;;;30.80;99.90;;;;;;5051220;28;20029;-72
2021/12/18 01:13:01;;;;;;;10.02;3.22;;;30.70;99.90;;;;;;5051418;28;20032;-71
2021/12/18 01:15:35;;;;;;;12.05;2.92;;;30.80;99.90;;;;;;5051656;28;20033;-71
2021/12/18 01:23:34;;;;;;;10.63;2.53;;;30.40;99.90;;;;;;5044559;28;20040;-71
2021/12/18 01:26:05;;;;;;;10.15;3.28;;;30.40;99.90;;;;;;5033220;28;20377;-72
2021/12/18 01:28:33;;;;;;;17.83;4.07;;;30.30;99.90;;;;;;5041481;28;20033;-71
2021/12/18 01:31:01;;;;;;;12.13;3.65;;;30.10;99.90;;;;;;5053064;28;20124;-72
2021/12/18 01:33:29;;;;;;;13.05;3.67;;;30.10;99.90;;;;;;5049789;28;20020;-71
2021/12/18 01:36:00;;;;;;;11.10;3.35;;;29.90;99.90;;;;;;5044579;28;20067;-71
2021/12/18 01:38:30;;;;;;;15.73;3.38;;;29.50;99.90;;;;;;5050734;28;20033;-71
2021/12/18 01:40:58;;;;;;;19.48;4.70;;;29.40;99.90;;;;;;5051581;28;20112;-71
2021/12/18 01:44:22;;;;;;;17.67;5.68;;;29.50;99.90;;;;;;5052379;28;20025;-71
2021/12/18 01:46:48;;;;;;;12.05;4.20;;;29.50;99.90;;;;;;5053519;28;20056;-72
2021/12/18 01:52:32;;;;;;;18.00;4.80;;;29.60;99.90;;;;;;5045792;28;20049;-69
2021/12/18 01:54:52;;;;;;;15.43;4.30;;;29.50;99.90;;;;;;5051263;28;20125;-70
2021/12/18 01:57:19;;;;;;;14.23;3.92;;;29.50;99.90;;;;;;5052508;28;20029;-71
2021/12/18 01:59:48;;;;;;;14.77;4.07;;;29.60;99.90;;;;;;5052141;28;20397;-71
2021/12/18 02:02:16;;;;;;;15.57;3.95;;;29.40;99.90;;;;;;5052564;28;20024;-70
2021/12/18 02:04:43;;;;;;;18.02;4.28;;;29.60;99.90;;;;;;5049990;28;20069;-72
2021/12/18 02:07:11;;;;;;;16.98;4.50;;;29.60;99.90;;;;;;5051968;28;20036;-72
2021/12/18 02:10:23;;;;;;;15.30;3.65;;;29.90;99.90;;;;;;5050921;28;20083;-72
2021/12/18 02:12:40;;;;;;;15.32;4.22;;;30.20;99.90;;;;;;5044689;28;20060;-72
2021/12/18 02:20:49;;;;;;;13.85;3.72;;;30.10;99.90;;;;;;5031245;28;20118;-72
2021/12/18 02:23:17;;;;;;;11.68;4.18;;;30.10;99.90;;;;;;5046072;28;20041;-73
2021/12/18 02:25:47;;;;;;;14.27;3.78;;;30.30;99.90;;;;;;5031662;28;20022;-73
2021/12/18 02:28:24;;;;;;;16.15;4.13;;;30.30;99.90;;;;;;5053327;28;20032;-73
2021/12/18 02:30:55;;;;;;;18.90;4.05;;;30.20;99.90;;;;;;5033812;28;20026;-73
2021/12/18 02:33:23;;;;;;;11.35;3.55;;;30.10;99.90;;;;;;5040739;28;20032;-72
2021/12/18 02:35:53;;;;;;;13.45;3.53;;;29.70;99.90;;;;;;5051975;28;20021;-72
2021/12/18 02:38:28;;;;;;;20.27;4.57;;;29.40;99.90;;;;;;5048711;28;20021;-72
2021/12/18 02:43:26;;;;;;;16.45;4.20;;;29.40;99.90;;;;;;5041359;28;20079;-71
2021/12/18 02:45:59;;;;;;;15.80;3.75;;;29.90;99.90;;;;;;5054292;28;20045;-70
2021/12/18 02:48:28;;;;;;;15.60;3.60;;;30.00;99.90;;;;;;5051378;28;20028;-71
2021/12/18 02:50:57;;;;;;;14.95;4.28;;;29.90;99.90;;;;;;5049629;28;20104;-70
2021/12/18 02:53:26;;;;;;;14.40;3.72;;;30.10;99.90;;;;;;5052919;28;20031;-70
2021/12/18 02:56:05;;;;;;;15.55;3.80;;;30.10;99.90;;;;;;5051205;28;20493;-70
2021/12/18 02:58:37;;;;;;;16.63;4.25;;;30.10;99.90;;;;;;5042775;28;20053;-70
2021/12/18 03:01:05;;;;;;;20.23;4.43;;;29.70;99.90;;;;;;5031714;28;20021;-71
2021/12/18 03:03:36;;;;;;;13.98;3.40;;;29.70;99.90;;;;;;5040518;28;20033;-71
2021/12/18 03:06:29;;;;;;;21.02;3.97;;;30.00;99.90;;;;;;5051144;28;20036;-70
2021/12/18 03:25:27;;;;;;;14.60;4.20;;;29.20;99.90;;;;;;5050455;28;20029;-69
2021/12/18 03:27:55;;;;;;;14.95;3.70;;;29.20;99.90;;;;;;5055938;28;20047;-69
2021/12/18 03:30:22;;;;;;;15.52;3.72;;;29.20;99.90;;;;;;5067856;28;20044;-69
2021/12/18 03:32:50;;;;;;;13.52;3.47;;;29.10;99.90;;;;;;5066801;28;20394;-69
2021/12/18 03:35:18;;;;;;;11.75;4.00;;;29.10;99.90;;;;;;5066927;28;20025;-69
2021/12/18 03:37:46;;;;;;;10.68;3.40;;;29.10;99.90;;;;;;5063056;28;20069;-69
2021/12/18 03:40:19;;;;;;;8.25;3.58;;;29.20;99.90;;;;;;5035806;28;20070;-69
2021/12/18 03:42:47;;;;;;;19.30;4.20;;;29.30;99.90;;;;;;5037555;28;20025;-70
2021/12/18 03:45:17;;;;;;;11.88;4.20;;;29.30;99.90;;;;;;5054602;28;20037;-69
2021/12/18 03:47:45;;;;;;;14.57;4.32;;;29.40;99.90;;;;;;5054418;28;20049;-70
2021/12/18 03:50:12;;;;;;;18.55;4.68;;;29.40;99.90;;;;;;5055795;28;20037;-69
2021/12/18 03:52:40;;;;;;;15.45;4.50;;;29.30;99.90;;;;;;5062555;28;20033;-70
2021/12/18 03:55:07;;;;;;;13.05;4.20;;;29.50;99.90;;;;;;5064334;28;20146;-70
2021/12/18 03:57:35;;;;;;;14.80;3.58;;;29.60;99.90;;;;;;5058240;28;20033;-70
2021/12/18 04:00:03;;;;;;;14.32;2.72;;;29.70;99.90;;;;;;5060571;28;20032;-69
2021/12/18 04:02:31;;;;;;;19.95;4.97;;;29.70;99.90;;;;;;5059171;28;20100;-70
2021/12/18 04:04:58;;;;;;;14.98;3.08;;;29.60;99.90;;;;;;5045856;28;20024;-69
2021/12/18 04:07:25;;;;;;;14.32;4.75;;;29.50;99.90;;;;;;5059859;28;20036;-70
2021/12/18 04:09:53;;;;;;;20.70;5.55;;;29.70;99.90;;;;;;5065826;28;20037;-69
2021/12/18 04:12:20;;;;;;;12.18;3.38;;;29.70;99.90;;;;;;5062365;28;20040;-70
2021/12/18 04:14:47;;;;;;;15.73;4.72;;;29.50;99.90;;;;;;5062210;28;20120;-69
2021/12/18 04:17:14;;;;;;;12.48;4.43;;;29.40;99.90;;;;;;5055417;28;20420;-70
2021/12/18 04:19:42;;;;;;;16.88;3.53;;;29.40;99.90;;;;;;5042311;28;20111;-69
2021/12/18 04:22:09;;;;;;;12.57;3.25;;;29.00;99.90;;;;;;5039560;28;20079;-69
2021/12/18 04:24:36;;;;;;;16.02;3.95;;;28.70;99.90;;;;;;5040851;28;20026;-70
2021/12/18 04:27:04;;;;;;;15.90;4.82;;;28.60;99.90;;;;;;5039352;28;20031;-70
2021/12/18 04:29:31;;;;;;;17.40;5.85;;;28.70;99.90;;;;;;5051158;28;20165;-69
2021/12/18 04:31:58;;;;;;;18.38;5.07;;;28.80;99.90;;;;;;5061492;28;20025;-70
2021/12/18 04:34:26;;;;;;;24.35;4.75;;;29.00;99.90;;;;;;5059615;28;20054;-69
2021/12/18 04:36:53;;;;;;;15.30;3.80;;;29.20;99.90;;;;;;5061808;28;20028;-69
2021/12/18 04:39:20;;;;;;;24.13;4.43;;;29.40;99.90;;;;;;5058303;28;20048;-69
2021/12/18 04:41:57;;;;;;;13.40;4.13;;;29.60;99.90;;;;;;5050576;28;20077;-69
2021/12/18 04:44:25;;;;;;;17.48;4.63;;;29.70;99.90;;;;;;5055030;28;20044;-68
2021/12/18 04:46:53;;;;;;;18.35;3.85;;;29.50;99.90;;;;;;5053896;28;20176;-69
2021/12/18 04:49:20;;;;;;;12.10;3.50;;;29.40;99.90;;;;;;5053435;28;20905;-70
2021/12/18 04:51:48;;;;;;;15.55;3.88;;;29.30;99.90;;;;;;5054981;28;20535;-69
2021/12/18 04:54:15;;;;;;;17.83;4.03;;;29.30;99.90;;;;;;5054312;28;20025;-69
2021/12/18 04:56:43;;;;;;;18.95;4.22;;;29.50;99.90;;;;;;5055388;28;20523;-68
2021/12/18 04:59:11;;;;;;;15.93;3.67;;;29.60;99.90;;;;;;5051692;28;20056;-68
2021/12/18 05:01:40;;;;;;;16.60;3.30;;;29.80;99.90;;;;;;5055872;28;20025;-69
2021/12/18 05:04:10;;;;;;;13.90;4.15;;;29.90;99.90;;;;;;5050614;28;20017;-69
2021/12/18 05:06:41;;;;;;;16.52;4.40;;;30.00;99.90;;;;;;5037439;28;20017;-69
2021/12/18 05:09:09;;;;;;;16.67;4.78;;;30.00;99.90;;;;;;5046242;28;20029;-69
2021/12/18 05:11:36;;;;;;;14.65;4.18;;;29.90;99.90;;;;;;5045870;28;20036;-70
2021/12/18 05:14:03;;;;;;;14.88;3.92;;;29.80;99.90;;;;;;5041798;28;20034;-70
2021/12/18 05:16:31;;;;;;;16.02;4.00;;;29.90;99.90;;;;;;5042520;28;20048;-69
2021/12/18 05:18:58;;;;;;;18.63;3.78;;;30.00;99.90;;;;;;5050905;28;20021;-69
2021/12/18 05:21:26;;;;;;;19.15;4.40;;;29.80;99.90;;;;;;5053227;28;20462;-69
2021/12/18 05:23:53;;;;;;;18.42;3.92;;;29.50;99.90;;;;;;5050643;28;20032;-69
2021/12/18 05:26:21;;;;;;;15.70;3.70;;;29.40;99.90;;;;;;5052997;28;20499;-69
2021/12/18 05:28:48;;;;;;;15.02;4.10;;;29.30;99.90;;;;;;5051438;28;20029;-69
2021/12/18 05:31:17;;;;;;;15.23;4.00;;;29.10;99.90;;;;;;5052984;28;20036;-69
2021/12/18 05:33:49;;;;;;;17.67;4.20;;;29.00;99.90;;;;;;5051936;28;20025;-69
2021/12/18 05:39:09;;;;;;;25.52;4.93;;;29.00;99.90;;;;;;5050951;28;20109;-69
2021/12/18 05:41:38;;;;;;;18.23;4.95;;;29.20;99.90;;;;;;5051238;28;20028;-68
2021/12/18 05:44:06;;;;;;;19.05;4.60;;;29.50;99.90;;;;;;5050831;28;20127;-68
2021/12/18 05:46:33;;;;;;;13.93;4.15;;;29.80;99.90;;;;;;5052728;28;20110;-69
2021/12/18 05:49:01;;;;;;;15.05;4.00;;;29.80;99.90;;;;;;5050862;28;20033;-69
2021/12/18 05:51:28;;;;;;;18.85;4.38;;;29.80;99.90;;;;;;5052184;28;20064;-68
2021/12/18 05:53:55;;;;;;;14.43;4.20;;;29.60;99.90;;;;;;5039816;28;20482;-68
2021/12/18 05:56:23;;;;;;;17.15;4.25;;;29.60;99.90;;;;;;5048360;28;20032;-68
2021/12/18 05:58:50;;;;;;;18.63;4.78;;;29.50;99.90;;;;;;5039703;28;20029;-68
2021/12/18 06:01:19;;;;;;;20.35;4.47;;;29.20;99.90;;;;;;5032357;28;20378;-68
2021/12/18 06:03:46;;;;;;;18.23;4.43;;;29.10;99.90;;;;;;5041376;28;20050;-68
2021/12/18 06:06:14;;;;;;;21.13;4.55;;;29.00;99.90;;;;;;5045172;28;20488;-68
2021/12/18 06:08:44;;;;;;;17.10;4.13;;;29.00;99.90;;;;;;5051573;28;20025;-69
2021/12/18 06:11:16;;;;;;;16.55;5.20;;;29.00;99.90;;;;;;5050928;28;20056;-68
2021/12/18 06:13:45;;;;;;;24.75;5.72;;;29.00;99.90;;;;;;5050674;28;20473;-68
2021/12/18 06:16:14;;;;;;;22.88;4.70;;;28.90;99.90;;;;;;5052241;28;20024;-68
2021/12/18 06:18:47;;;;;;;23.27;5.72;;;28.90;99.90;;;;;;5050522;28;20111;-68
2021/12/18 06:21:15;;;;;;;22.17;5.17;;;28.90;99.90;;;;;;5052001;28;20029;-68
2021/12/18 06:23:47;;;;;;;21.92;5.07;;;29.00;99.90;;;;;;5051275;28;20362;-68
2021/12/18 06:26:15;;;;;;;31.10;6.80;;;29.00;99.90;;;;;;5052106;28;20021;-68
2021/12/18 06:28:42;;;;;;;20.45;4.68;;;29.00;99.90;;;;;;5042125;28;20060;-68
2021/12/18 06:31:10;;;;;;;31.05;5.18;;;29.30;99.90;;;;;;5030949;28;20620;-68
2021/12/18 06:33:37;;;;;;;25.70;4.45;;;28.80;99.90;;;;;;5046234;28;20021;-68
2021/12/18 06:36:05;;;;;;;25.30;5.30;;;28.90;99.90;;;;;;5052200;28;20465;-68
2021/12/18 06:38:33;;;;;;;20.95;5.60;;;29.00;99.90;;;;;;5051104;28;20048;-69
2021/12/18 06:41:00;;;;;;;21.50;5.05;;;29.60;99.90;;;;;;5051644;28;20544;-69
2021/12/18 06:43:27;;;;;;;22.83;5.13;;;30.00;99.90;;;;;;5051150;28;20028;-69
2021/12/18 06:45:54;;;;;;;22.08;5.63;;;30.70;99.90;;;;;;5031508;28;20100;-69
2021/12/18 06:48:22;;;;;;;18.48;4.30;;;30.40;99.90;;;;;;5033149;28;20381;-69
2021/12/18 06:50:50;;;;;;;28.20;4.85;;;29.70;99.90;;;;;;5034832;28;20102;-69
2021/12/18 06:53:18;;;;;;;26.65;5.38;;;29.20;99.90;;;;;;5051170;28;20373;-69
2021/12/18 06:55:46;;;;;;;23.58;5.00;;;29.00;99.90;;;;;;5052101;28;20021;-69
2021/12/18 06:58:13;;;;;;;27.48;5.57;;;29.00;99.90;;;;;;5051001;28;20021;-69
2021/12/18 07:00:40;;;;;;;23.52;5.00;;;28.90;99.90;;;;;;5046391;28;20021;-68
2021/12/18 07:03:08;;;;;;;24.70;5.45;;;28.90;99.90;;;;;;5049814;28;20021;-68
2021/12/18 07:05:35;;;;;;;20.15;5.13;;;28.90;99.90;;;;;;5050045;28;20029;-69
2021/12/18 07:08:02;;;;;;;20.13;4.97;;;29.20;99.90;;;;;;5050219;28;20071;-68
2021/12/18 07:10:31;;;;;;;28.58;6.78;;;29.00;99.90;;;;;;5049941;28;20386;-70
2021/12/18 07:12:59;;;;;;;21.20;5.18;;;28.80;99.90;;;;;;5051250;28;20018;-68
2021/12/18 07:15:26;;;;;;;26.05;5.05;;;28.90;99.90;;;;;;5036273;28;20470;-70
2021/12/18 07:17:53;;;;;;;23.45;7.20;;;28.70;99.90;;;;;;5054444;28;20013;-68
2021/12/18 07:20:20;;;;;;;34.55;12.77;;;28.60;99.90;;;;;;5055324;28;20022;-68
2021/12/18 07:22:48;;;;;;;31.30;13.00;;;29.90;99.90;;;;;;5051883;28;20029;-69
2021/12/18 07:25:16;;;;;;;60.72;33.83;;;30.30;99.90;;;;;;5035373;28;20113;-68
2021/12/18 07:27:43;;;;;;;24.20;5.43;;;29.50;99.90;;;;;;5037243;28;20033;-67
2021/12/18 07:30:11;;;;;;;30.42;9.35;;;29.40;99.90;;;;;;5055118;28;20040;-69
2021/12/18 07:32:39;;;;;;;27.20;8.80;;;28.90;99.90;;;;;;5054121;28;20086;-68
2021/12/18 07:35:08;;;;;;;20.45;5.78;;;28.80;99.90;;;;;;5054872;28;20028;-68
2021/12/18 07:37:36;;;;;;;22.42;6.50;;;28.60;99.90;;;;;;5054125;28;20033;-68
2021/12/18 07:40:06;;;;;;;17.48;5.00;;;28.60;99.90;;;;;;5054064;28;20125;-68
2021/12/18 07:42:33;;;;;;;25.95;9.05;;;28.40;99.90;;;;;;5054462;28;20087;-68
2021/12/18 07:45:01;;;;;;;27.52;7.72;;;28.70;99.90;;;;;;5035111;28;20389;-67
2021/12/18 07:47:28;;;;;;;23.92;5.47;;;28.90;99.90;;;;;;5036249;28;20072;-68
2021/12/18 07:49:56;;;;;;;23.75;7.38;;;28.70;99.90;;;;;;5034968;28;20474;-67
2021/12/18 07:52:24;;;;;;;28.02;9.43;;;28.40;99.90;;;;;;5049940;28;20053;-68
2021/12/18 07:54:51;;;;;;;24.13;6.10;;;28.30;99.90;;;;;;5040007;28;20032;-68
2021/12/18 07:57:19;;;;;;;21.95;6.20;;;28.10;99.90;;;;;;5055095;28;20025;-67
2021/12/18 07:59:46;;;;;;;22.70;5.75;;;28.10;99.90;;;;;;5053326;28;20535;-67
2021/12/18 08:02:13;;;;;;;22.48;6.43;;;28.00;99.90;;;;;;5054952;28;20113;-67
2021/12/18 08:04:40;;;;;;;30.52;7.20;;;28.00;99.90;;;;;;5052288;28;20021;-68
2021/12/18 08:07:08;;;;;;;28.48;6.82;;;27.80;99.90;;;;;;5054547;28;20027;-68
2021/12/18 08:09:35;;;;;;;24.35;7.57;;;27.80;99.90;;;;;;5052279;28;20029;-69
2021/12/18 08:12:02;;;;;;;28.27;8.13;;;27.70;99.90;;;;;;5054143;28;20021;-67
2021/12/18 08:14:32;;;;;;;26.88;10.48;;;27.60;99.90;;;;;;5051231;28;20108;-67
2021/12/18 08:16:59;;;;;;;28.33;8.32;;;27.60;99.90;;;;;;5054273;28;20393;-68
2021/12/18 08:19:26;;;;;;;32.50;9.13;;;27.50;99.90;;;;;;5053795;28;20466;-67
2021/12/18 08:21:53;;;;;;;30.25;8.30;;;27.40;99.90;;;;;;5052422;28;20100;-68
2021/12/18 08:24:21;;;;;;;27.98;6.88;;;27.30;99.90;;;;;;5051771;28;20036;-67
2021/12/18 08:26:48;;;;;;;27.60;7.63;;;27.30;99.90;;;;;;5048711;28;20119;-67
2021/12/18 08:29:15;;;;;;;27.25;6.05;;;27.20;99.90;;;;;;5050858;28;20028;-67
2021/12/18 08:31:43;;;;;;;25.65;7.63;;;27.10;99.90;;;;;;5054296;28;20507;-67
2021/12/18 08:34:10;;;;;;;27.40;6.53;;;27.00;99.90;;;;;;5052736;28;20401;-67
2021/12/18 08:36:37;;;;;;;32.58;8.10;;;26.90;99.90;;;;;;5052843;28;20489;-67
2021/12/18 08:39:05;;;;;;;28.40;7.88;;;26.90;99.90;;;;;;5054350;28;20025;-67
2021/12/18 08:41:33;;;;;;;25.95;7.03;;;26.90;99.90;;;;;;5052529;28;20029;-67
2021/12/18 08:44:01;;;;;;;21.27;6.05;;;26.90;99.90;;;;;;5052550;28;20029;-67
2021/12/18 08:46:28;;;;;;;30.55;8.45;;;26.80;99.90;;;;;;5051978;28;20068;-68
2021/12/18 08:48:55;;;;;;;25.13;7.55;;;26.80;99.90;;;;;;5048475;28;20080;-68
2021/12/18 08:51:22;;;;;;;29.33;7.78;;;26.70;99.90;;;;;;5053882;28;20032;-68
2021/12/18 08:53:50;;;;;;;35.95;8.40;;;26.70;99.90;;;;;;5053993;28;20021;-68
2021/12/18 08:56:17;;;;;;;25.33;7.18;;;26.70;99.90;;;;;;5053525;28;20413;-68
2021/12/18 08:58:44;;;;;;;24.38;6.78;;;26.60;99.90;;;;;;5052380;28;20119;-68
2021/12/18 09:01:12;;;;;;;26.42;6.50;;;26.60;99.90;;;;;;5053439;28;20080;-67
2021/12/18 09:03:39;;;;;;;26.88;6.60;;;26.60;99.90;;;;;;5054355;28;20052;-67
2021/12/18 09:06:06;;;;;;;29.90;6.45;;;26.60;99.90;;;;;;5052334;28;20508;-68
2021/12/18 09:08:33;;;;;;;31.05;7.90;;;26.50;99.90;;;;;;5053989;28;20025;-68
2021/12/18 09:11:01;;;;;;;27.50;6.97;;;26.50;99.90;;;;;;5052117;28;20124;-68
2021/12/18 09:13:28;;;;;;;21.95;6.70;;;26.50;99.90;;;;;;5036378;28;20036;-68
2021/12/18 09:15:55;;;;;;;24.77;6.45;;;26.40;99.90;;;;;;5037953;28;20051;-68
2021/12/18 09:18:23;;;;;;;24.42;6.60;;;26.30;99.90;;;;;;5053112;28;20103;-68
2021/12/18 09:20:50;;;;;;;28.88;7.18;;;26.30;99.90;;;;;;5053036;28;20358;-68
2021/12/18 09:23:18;;;;;;;27.60;6.93;;;26.30;99.90;;;;;;5053398;28;20181;-68
2021/12/18 09:25:46;;;;;;;29.05;7.70;;;26.30;99.90;;;;;;5053647;28;20392;-68
2021/12/18 09:28:13;;;;;;;24.65;6.13;;;26.20;99.90;;;;;;5052881;28;20029;-68
2021/12/18 09:30:41;;;;;;;29.25;6.88;;;26.20;99.90;;;;;;5052496;28;20375;-68
2021/12/18 09:33:13;;;;;;;31.23;8.45;;;26.20;99.90;;;;;;5052602;28;20132;-68
2021/12/18 09:35:41;;;;;;;30.98;7.55;;;26.10;99.90;;;;;;5051185;28;20037;-67
2021/12/18 09:38:09;;;;;;;25.10;7.75;;;26.10;99.90;;;;;;5053011;28;20043;-68
2021/12/18 09:40:37;;;;;;;30.35;8.38;;;26.10;99.90;;;;;;5053568;28;20178;-68
2021/12/18 09:43:05;;;;;;;31.23;6.93;;;26.10;99.90;;;;;;5049363;28;20063;-68
2021/12/18 09:45:33;;;;;;;26.75;6.85;;;26.10;99.90;;;;;;5050764;28;20025;-68
2021/12/18 09:48:01;;;;;;;36.45;7.30;;;26.10;99.90;;;;;;5053096;28;20052;-68
2021/12/18 09:50:32;;;;;;;36.35;7.65;;;26.10;99.90;;;;;;5052657;28;20040;-68
2021/12/18 09:52:59;;;;;;;30.10;7.15;;;26.10;99.90;;;;;;5032837;28;20017;-68
2021/12/18 09:55:27;;;;;;;29.67;7.32;;;26.10;99.90;;;;;;5031327;28;20488;-67
2021/12/18 09:57:54;;;;;;;26.55;7.30;;;26.00;99.90;;;;;;5034158;28;20017;-67
2021/12/18 10:00:25;;;;;;;33.75;7.55;;;26.00;99.90;;;;;;5036169;28;20040;-66
2021/12/18 10:02:53;;;;;;;28.23;8.25;;;26.00;99.90;;;;;;5038127;28;20021;-68
2021/12/18 10:05:29;;;;;;;28.13;7.22;;;26.00;99.90;;;;;;5050440;28;20102;-68
2021/12/18 10:08:10;;;;;;;31.45;7.70;;;26.00;99.90;;;;;;5049251;28;20017;-68
2021/12/18 10:10:38;;;;;;;36.20;7.88;;;26.00;99.90;;;;;;5050833;28;20033;-68
2021/12/18 10:13:09;;;;;;;30.55;8.25;;;25.90;99.90;;;;;;5051168;28;20047;-68
2021/12/18 10:15:38;;;;;;;28.55;6.68;;;25.90;99.90;;;;;;5050598;28;20366;-68
2021/12/18 10:18:12;;;;;;;30.08;8.43;;;25.90;99.90;;;;;;5045597;28;20501;-69
2021/12/18 10:20:40;;;;;;;22.48;6.10;;;25.90;99.90;;;;;;5047770;28;20036;-69
2021/12/18 10:23:07;;;;;;;31.67;7.85;;;25.90;99.90;;;;;;5036739;28;20029;-68
2021/12/18 10:25:44;;;;;;;33.92;7.60;;;25.80;99.90;;;;;;5052390;28;20485;-68
2021/12/18 10:28:20;;;;;;;32.97;7.60;;;25.90;99.90;;;;;;5049955;28;20024;-68
2021/12/18 10:30:53;;;;;;;23.90;6.25;;;25.80;99.90;;;;;;5050787;28;20032;-69
2021/12/18 10:33:27;;;;;;;31.70;8.20;;;25.80;99.90;;;;;;5044797;28;20128;-69
2021/12/18 10:35:57;;;;;;;31.20;8.77;;;25.80;99.90;;;;;;5047270;28;20053;-68
2021/12/18 10:38:47;;;;;;;36.25;6.53;;;25.80;99.90;;;;;;5048351;28;20083;-68
2021/12/18 10:41:26;;;;;;;31.92;7.60;;;25.80;99.90;;;;;;5051740;28;20037;-68
2021/12/18 10:44:00;;;;;;;24.80;6.25;;;25.80;99.90;;;;;;5051294;28;20017;-68
2021/12/18 10:46:29;;;;;;;31.67;6.68;;;25.80;99.90;;;;;;5054119;28;20052;-68
2021/12/18 10:49:03;;;;;;;31.27;7.47;;;25.80;99.90;;;;;;5053982;28;20170;-68
2021/12/18 10:51:35;;;;;;;24.00;7.38;;;25.70;99.90;;;;;;5054830;28;20025;-68
2021/12/18 10:54:07;;;;;;;26.63;6.70;;;25.80;99.90;;;;;;5054174;28;20029;-69
2021/12/18 10:56:40;;;;;;;21.80;6.55;;;25.80;99.90;;;;;;5056150;28;20040;-68
2021/12/18 10:59:21;;;;;;;24.48;5.93;;;25.80;99.90;;;;;;5054754;28;20016;-68
2021/12/18 11:01:56;;;;;;;30.80;6.60;;;25.80;99.90;;;;;;5055927;28;20028;-68
2021/12/18 11:04:33;;;;;;;19.38;5.50;;;25.80;99.90;;;;;;5051790;28;20036;-69
2021/12/18 11:07:21;;;;;;;29.20;7.03;;;25.80;99.90;;;;;;5055825;28;20021;-69
2021/12/18 11:10:11;;;;;;;20.88;5.75;;;25.80;99.90;;;;;;5034913;28;20033;-68
2021/12/18 11:15:21;;;;;;;24.90;6.07;;;25.80;99.90;;;;;;5035981;28;20048;-68
2021/12/18 11:17:50;;;;;;;29.25;6.60;;;25.80;99.90;;;;;;5052950;28;20034;-68
2021/12/18 11:20:18;;;;;;;28.13;6.60;;;25.80;99.90;;;;;;5055520;28;20078;-68
2021/12/18 11:22:48;;;;;;;27.77;6.47;;;25.80;99.90;;;;;;5053869;28;20062;-68
2021/12/18 11:25:15;;;;;;;29.05;7.05;;;25.70;99.90;;;;;;5035712;28;20371;-68
2021/12/18 11:27:43;;;;;;;23.95;6.05;;;25.70;99.90;;;;;;5037557;28;20397;-68
2021/12/18 11:30:14;;;;;;;26.50;6.60;;;25.70;99.90;;;;;;5053217;28;20048;-68
2021/12/18 11:32:44;;;;;;;28.48;7.07;;;25.70;99.90;;;;;;5047640;28;20039;-68
2021/12/18 11:35:17;;;;;;;22.10;6.55;;;25.70;99.90;;;;;;5054114;28;20021;-68
2021/12/18 11:38:08;;;;;;;23.20;7.30;;;25.70;99.90;;;;;;5054542;28;20072;-68
2021/12/18 11:40:37;;;;;;;28.17;9.05;;;25.70;99.90;;;;;;5055218;28;20065;-68
2021/12/18 11:43:09;;;;;;;22.98;7.43;;;25.70;99.90;;;;;;5052916;28;20500;-68
2021/12/18 11:45:37;;;;;;;29.88;7.93;;;25.70;99.90;;;;;;5055100;28;20036;-68
2021/12/18 11:48:06;;;;;;;30.35;7.32;;;25.70;99.90;;;;;;5052891;28;20041;-68
2021/12/18 11:50:38;;;;;;;32.03;8.27;;;25.70;99.90;;;;;;5054941;28;20025;-68
2021/12/18 11:53:09;;;;;;;28.83;8.73;;;25.70;99.90;;;;;;5052889;28;20074;-68
2021/12/18 11:55:38;;;;;;;22.65;7.68;;;25.70;99.90;;;;;;5034976;28;20021;-68
2021/12/18 11:58:16;;;;;;;22.75;6.38;;;25.70;99.90;;;;;;5039344;28;20534;-68
2021/12/18 12:00:44;;;;;;;20.42;6.95;;;25.70;99.90;;;;;;5053575;28;20028;-68
2021/12/18 12:03:26;;;;;;;26.27;7.65;;;25.70;99.90;;;;;;5051965;28;20013;-68
2021/12/18 12:05:55;;;;;;;26.65;8.40;;;25.70;99.90;;;;;;5052708;28;20056;-68
2021/12/18 12:08:37;;;;;;;24.63;7.15;;;25.70;99.90;;;;;;5043744;28;20719;-67
2021/12/18 12:11:16;;;;;;;8.43;2.58;;;25.80;99.90;;;;;;5034482;28;20418;-68
2021/12/18 12:14:00;;;;;;;6.00;1.75;;;27.00;99.90;;;;;;5043789;28;20086;-68
2021/12/18 12:16:46;;;;;;;3.08;0.50;;;27.40;99.90;;;;;;5044833;28;20084;-67
2021/12/18 12:19:21;;;;;;;3.63;0.40;;;27.20;99.90;;;;;;5049583;28;20124;-69
2021/12/18 12:21:57;;;;;;;3.58;0.40;;;27.10;99.90;;;;;;5034592;28;20391;-68
2021/12/18 12:24:27;;;;;;;4.68;0.75;;;26.90;99.90;;;;;;5050771;28;20033;-67
2021/12/18 12:27:15;;;;;;;0.73;0.32;;;26.50;99.90;;;;;;5048796;28;20377;-67
2021/12/18 12:29:48;;;;;;;3.15;0.20;;;26.20;99.90;;;;;;5052299;28;20432;-69
2021/12/18 12:32:16;;;;;;;3.87;0.30;;;25.90;99.90;;;;;;5053870;28;20025;-68
2021/12/18 12:34:44;;;;;;;0.80;0.17;;;25.70;99.90;;;;;;5051496;28;20025;-68
2021/12/18 12:37:24;;;;;;;1.88;0.30;;;25.40;99.90;;;;;;5053246;28;20047;-67
2021/12/18 12:40:04;;;;;;;6.50;0.88;;;24.80;99.90;;;;;;5053527;28;20108;-67
2021/12/18 12:42:32;;;;;;;6.55;0.90;;;23.60;99.90;;;;;;5053529;28;20025;-68
2021/12/18 12:45:05;;;;;;;3.28;0.50;;;23.10;99.90;;;;;;5051310;28;20037;-68
2021/12/18 12:47:33;;;;;;;2.35;0.30;;;22.90;99.90;;;;;;5053093;28;20524;-68
2021/12/18 12:50:21;;;;;;;1.58;0.22;;;22.80;99.90;;;;;;5033983;28;20033;-68
2021/12/18 12:52:54;;;;;;;1.90;0.85;;;22.80;99.90;;;;;;5032098;28;20121;-68
2021/12/18 12:55:25;;;;;;;4.15;0.40;;;22.60;99.90;;;;;;5052088;28;20028;-68
2021/12/18 12:57:55;;;;;;;1.67;0.20;;;22.60;99.90;;;;;;5050390;28;20009;-68
2021/12/18 13:00:23;;;;;;;1.85;0.20;;;22.60;99.90;;;;;;5033722;28;20530;-68
2021/12/18 13:03:00;;;;;;;2.08;0.30;;;22.60;99.90;;;;;;5034245;28;20017;-68
2021/12/18 13:05:29;;;;;;;1.63;0.40;;;22.70;99.90;;;;;;5035408;28;20025;-68
2021/12/18 13:08:01;;;;;;;6.63;0.50;;;22.60;99.90;;;;;;5036550;28;20033;-68
2021/12/18 13:10:36;;;;;;;7.63;1.33;;;22.60;99.90;;;;;;5053232;28;20057;-69
2021/12/18 13:13:10;;;;;;;14.32;2.55;;;22.10;99.90;;;;;;5051231;28;20032;-69
2021/12/18 13:15:54;;;;;;;13.40;2.25;;;21.80;99.90;;;;;;5050876;28;20014;-69
2021/12/18 13:18:28;;;;;;;4.85;1.20;;;21.60;99.90;;;;;;5040294;28;20025;-72
2021/12/18 13:21:06;;;;;;;7.13;1.10;;;21.50;99.90;;;;;;5047422;28;20025;-68
2021/12/18 13:23:44;;;;;;;2.40;0.50;;;21.50;99.90;;;;;;5049796;28;20024;-69
2021/12/18 13:26:34;;;;;;;10.30;0.95;;;21.50;99.90;;;;;;5052949;28;20048;-68
2021/12/18 13:29:19;;;;;;;3.45;0.60;;;21.50;99.90;;;;;;5052101;28;20029;-69
2021/12/18 13:31:56;;;;;;;6.65;0.93;;;21.60;99.90;;;;;;5053125;28;20037;-69
2021/12/18 13:34:27;;;;;;;6.65;0.80;;;21.70;99.90;;;;;;5051750;28;20432;-68